sensor_id;sensor_type;location;lat;lon;timestamp;P1;durP1;ratioP1;P2;durP2;ratioP2
4409;SDS011;2218;51.408;7.208;2023-03-04T00:01:52;1.80;;;1.70;;
4409;SDS011;2218;51.408;7.208;2023-03-04T00:04:19;1.70;;;1.60;;
4409;SDS011;2218;51.408;7.208;2023-03-04T00:06:46;1.90;;;1.80;;
4409;SDS011;2218;51.408;7.208;2023-03-04T00:09:13;1.70;;;1.60;;
4409;SDS011;2218;51.408;7.208;2023-03-04T00:11:40;1.70;;;1.60;;
4409;SDS011;2218;51.408;7.208;2023-03-04T00:14:07;1.50;;;1.40;;
4409;SDS011;2218;51.408;7.208;2023-03-04T00:16:34;1.73;;;1.63;;
4409;SDS011;2218;51.408;7.208;2023-03-04T00:19:02;1.70;;;1.60;;
4409;SDS011;2218;51.408;7.208;2023-03-04T00:21:29;1.43;;;1.33;;
4409;SDS011;2218;51.408;7.208;2023-03-04T00:23:56;1.40;;;1.30;;
4409;SDS011;2218;51.408;7.208;2023-03-04T00:26:23;1.70;;;1.60;;
4409;SDS011;2218;51.408;7.208;2023-03-04T00:28:50;1.40;;;1.30;;
4409;SDS011;2218;51.408;7.208;2023-03-04T00:31:17;1.57;;;1.47;;
4409;SDS011;2218;51.408;7.208;2023-03-04T00:33:44;1.53;;;1.43;;
4409;SDS011;2218;51.408;7.208;2023-03-04T00:36:13;1.10;;;1.10;;
4409;SDS011;2218;51.408;7.208;2023-03-04T00:38:39;1.50;;;1.40;;
4409;SDS011;2218;51.408;7.208;2023-03-04T00:41:07;1.40;;;1.30;;
4409;SDS011;2218;51.408;7.208;2023-03-04T00:43:34;1.30;;;1.20;;
4409;SDS011;2218;51.408;7.208;2023-03-04T00:46:00;1.53;;;1.43;;
4409;SDS011;2218;51.408;7.208;2023-03-04T00:48:28;1.27;;;1.17;;
4409;SDS011;2218;51.408;7.208;2023-03-04T00:50:55;1.40;;;1.30;;
4409;SDS011;2218;51.408;7.208;2023-03-04T00:53:23;1.40;;;1.30;;
4409;SDS011;2218;51.408;7.208;2023-03-04T00:55:50;1.53;;;1.43;;
4409;SDS011;2218;51.408;7.208;2023-03-04T00:58:17;1.30;;;1.20;;
4409;SDS011;2218;51.408;7.208;2023-03-04T01:00:44;1.30;;;1.20;;
4409;SDS011;2218;51.408;7.208;2023-03-04T01:03:11;1.20;;;1.10;;
4409;SDS011;2218;51.408;7.208;2023-03-04T01:05:38;1.20;;;1.10;;
4409;SDS011;2218;51.408;7.208;2023-03-04T01:08:05;1.40;;;1.30;;
4409;SDS011;2218;51.408;7.208;2023-03-04T01:10:33;1.20;;;1.10;;
4409;SDS011;2218;51.408;7.208;2023-03-04T01:13:01;1.23;;;1.17;;
4409;SDS011;2218;51.408;7.208;2023-03-04T01:15:28;1.33;;;1.23;;
4409;SDS011;2218;51.408;7.208;2023-03-04T01:17:55;0.93;;;0.90;;
4409;SDS011;2218;51.408;7.208;2023-03-04T01:20:21;1.10;;;1.00;;
4409;SDS011;2218;51.408;7.208;2023-03-04T01:22:49;1.07;;;0.97;;
4409;SDS011;2218;51.408;7.208;2023-03-04T01:25:16;1.33;;;1.23;;
4409;SDS011;2218;51.408;7.208;2023-03-04T01:27:45;0.90;;;0.90;;
4409;SDS011;2218;51.408;7.208;2023-03-04T01:30:12;1.10;;;1.00;;
4409;SDS011;2218;51.408;7.208;2023-03-04T01:32:39;1.27;;;1.17;;
4409;SDS011;2218;51.408;7.208;2023-03-04T01:35:06;0.80;;;0.80;;
4409;SDS011;2218;51.408;7.208;2023-03-04T01:37:34;0.93;;;0.93;;
4409;SDS011;2218;51.408;7.208;2023-03-04T01:40:01;1.07;;;0.97;;
4409;SDS011;2218;51.408;7.208;2023-03-04T01:42:31;1.10;;;1.00;;
4409;SDS011;2218;51.408;7.208;2023-03-04T01:45:02;0.90;;;0.80;;
4409;SDS011;2218;51.408;7.208;2023-03-04T01:47:31;1.00;;;1.00;;
4409;SDS011;2218;51.408;7.208;2023-03-04T01:50:01;0.87;;;0.87;;
4409;SDS011;2218;51.408;7.208;2023-03-04T01:52:36;1.03;;;0.93;;
4409;SDS011;2218;51.408;7.208;2023-03-04T01:55:09;0.80;;;0.80;;
4409;SDS011;2218;51.408;7.208;2023-03-04T01:57:42;0.70;;;0.70;;
4409;SDS011;2218;51.408;7.208;2023-03-04T02:00:21;0.97;;;0.93;;
4409;SDS011;2218;51.408;7.208;2023-03-04T02:02:53;1.20;;;1.10;;
4409;SDS011;2218;51.408;7.208;2023-03-04T02:05:24;1.10;;;0.93;;
4409;SDS011;2218;51.408;7.208;2023-03-04T02:07:53;0.80;;;0.63;;
4409;SDS011;2218;51.408;7.208;2023-03-04T02:10:22;0.70;;;0.70;;
4409;SDS011;2218;51.408;7.208;2023-03-04T02:12:50;1.00;;;0.90;;
4409;SDS011;2218;51.408;7.208;2023-03-04T02:15:19;1.07;;;0.97;;
4409;SDS011;2218;51.408;7.208;2023-03-04T02:17:47;0.80;;;0.70;;
4409;SDS011;2218;51.408;7.208;2023-03-04T02:20:24;1.00;;;0.80;;
4409;SDS011;2218;51.408;7.208;2023-03-04T02:23:06;0.80;;;0.70;;
4409;SDS011;2218;51.408;7.208;2023-03-04T02:25:44;0.70;;;0.70;;
4409;SDS011;2218;51.408;7.208;2023-03-04T02:28:21;1.00;;;0.90;;
4409;SDS011;2218;51.408;7.208;2023-03-04T02:30:48;0.70;;;0.70;;
4409;SDS011;2218;51.408;7.208;2023-03-04T02:33:16;0.80;;;0.73;;
4409;SDS011;2218;51.408;7.208;2023-03-04T02:35:44;0.80;;;0.80;;
4409;SDS011;2218;51.408;7.208;2023-03-04T02:38:12;0.70;;;0.60;;
4409;SDS011;2218;51.408;7.208;2023-03-04T02:40:40;0.87;;;0.80;;
4409;SDS011;2218;51.408;7.208;2023-03-04T02:43:13;0.70;;;0.70;;
4409;SDS011;2218;51.408;7.208;2023-03-04T02:45:42;0.87;;;0.87;;
4409;SDS011;2218;51.408;7.208;2023-03-04T02:48:13;0.70;;;0.60;;
4409;SDS011;2218;51.408;7.208;2023-03-04T02:50:44;0.83;;;0.83;;
4409;SDS011;2218;51.408;7.208;2023-03-04T02:53:15;0.80;;;0.70;;
4409;SDS011;2218;51.408;7.208;2023-03-04T02:55:43;0.70;;;0.60;;
4409;SDS011;2218;51.408;7.208;2023-03-04T02:58:11;1.10;;;1.00;;
4409;SDS011;2218;51.408;7.208;2023-03-04T03:00:39;0.80;;;0.80;;
4409;SDS011;2218;51.408;7.208;2023-03-04T03:03:10;0.70;;;0.70;;
4409;SDS011;2218;51.408;7.208;2023-03-04T03:05:37;0.70;;;0.60;;
4409;SDS011;2218;51.408;7.208;2023-03-04T03:08:06;0.70;;;0.70;;
4409;SDS011;2218;51.408;7.208;2023-03-04T03:10:33;0.70;;;0.60;;
4409;SDS011;2218;51.408;7.208;2023-03-04T03:13:01;0.70;;;0.70;;
4409;SDS011;2218;51.408;7.208;2023-03-04T03:15:29;0.80;;;0.63;;
4409;SDS011;2218;51.408;7.208;2023-03-04T03:17:57;0.80;;;0.67;;
4409;SDS011;2218;51.408;7.208;2023-03-04T03:20:24;0.90;;;0.70;;
4409;SDS011;2218;51.408;7.208;2023-03-04T03:22:51;0.70;;;0.60;;
4409;SDS011;2218;51.408;7.208;2023-03-04T03:25:18;0.70;;;0.70;;
4409;SDS011;2218;51.408;7.208;2023-03-04T03:27:45;0.80;;;0.73;;
4409;SDS011;2218;51.408;7.208;2023-03-04T03:30:13;0.80;;;0.60;;
4409;SDS011;2218;51.408;7.208;2023-03-04T03:32:41;0.70;;;0.70;;
4409;SDS011;2218;51.408;7.208;2023-03-04T03:35:10;0.70;;;0.60;;
4409;SDS011;2218;51.408;7.208;2023-03-04T03:37:38;1.00;;;0.90;;
4409;SDS011;2218;51.408;7.208;2023-03-04T03:40:05;0.77;;;0.67;;
4409;SDS011;2218;51.408;7.208;2023-03-04T03:42:34;1.00;;;0.70;;
4409;SDS011;2218;51.408;7.208;2023-03-04T03:45:00;0.80;;;0.80;;
4409;SDS011;2218;51.408;7.208;2023-03-04T03:47:28;0.80;;;0.80;;
4409;SDS011;2218;51.408;7.208;2023-03-04T03:49:54;0.70;;;0.60;;
4409;SDS011;2218;51.408;7.208;2023-03-04T03:52:23;1.30;;;0.90;;
4409;SDS011;2218;51.408;7.208;2023-03-04T03:54:50;0.70;;;0.70;;
4409;SDS011;2218;51.408;7.208;2023-03-04T03:57:16;0.70;;;0.60;;
4409;SDS011;2218;51.408;7.208;2023-03-04T03:59:43;0.90;;;0.70;;
4409;SDS011;2218;51.408;7.208;2023-03-04T04:02:10;0.90;;;0.67;;
4409;SDS011;2218;51.408;7.208;2023-03-04T04:04:37;0.80;;;0.70;;
4409;SDS011;2218;51.408;7.208;2023-03-04T04:07:04;0.90;;;0.70;;
4409;SDS011;2218;51.408;7.208;2023-03-04T04:09:32;0.70;;;0.70;;
4409;SDS011;2218;51.408;7.208;2023-03-04T04:11:59;0.80;;;0.80;;
4409;SDS011;2218;51.408;7.208;2023-03-04T04:14:26;0.70;;;0.60;;
4409;SDS011;2218;51.408;7.208;2023-03-04T04:16:53;0.80;;;0.73;;
4409;SDS011;2218;51.408;7.208;2023-03-04T04:19:20;0.90;;;0.73;;
4409;SDS011;2218;51.408;7.208;2023-03-04T04:21:47;0.80;;;0.60;;
4409;SDS011;2218;51.408;7.208;2023-03-04T04:24:14;0.70;;;0.70;;
4409;SDS011;2218;51.408;7.208;2023-03-04T04:26:43;0.70;;;0.60;;
4409;SDS011;2218;51.408;7.208;2023-03-04T04:29:12;0.90;;;0.60;;
4409;SDS011;2218;51.408;7.208;2023-03-04T04:31:39;0.80;;;0.70;;
4409;SDS011;2218;51.408;7.208;2023-03-04T04:34:06;0.70;;;0.70;;
4409;SDS011;2218;51.408;7.208;2023-03-04T04:36:34;0.80;;;0.70;;
4409;SDS011;2218;51.408;7.208;2023-03-04T04:39:01;0.70;;;0.63;;
4409;SDS011;2218;51.408;7.208;2023-03-04T04:41:29;0.70;;;0.60;;
4409;SDS011;2218;51.408;7.208;2023-03-04T04:44:03;0.90;;;0.73;;
4409;SDS011;2218;51.408;7.208;2023-03-04T04:46:30;0.80;;;0.80;;
4409;SDS011;2218;51.408;7.208;2023-03-04T04:48:58;0.80;;;0.60;;
4409;SDS011;2218;51.408;7.208;2023-03-04T04:51:25;0.70;;;0.50;;
4409;SDS011;2218;51.408;7.208;2023-03-04T04:53:52;0.80;;;0.67;;
4409;SDS011;2218;51.408;7.208;2023-03-04T04:56:20;0.80;;;0.50;;
4409;SDS011;2218;51.408;7.208;2023-03-04T04:58:51;0.90;;;0.50;;
4409;SDS011;2218;51.408;7.208;2023-03-04T05:01:20;0.70;;;0.50;;
4409;SDS011;2218;51.408;7.208;2023-03-04T05:03:48;0.87;;;0.70;;
4409;SDS011;2218;51.408;7.208;2023-03-04T05:06:18;0.60;;;0.43;;
4409;SDS011;2218;51.408;7.208;2023-03-04T05:08:45;0.70;;;0.63;;
4409;SDS011;2218;51.408;7.208;2023-03-04T05:11:12;0.80;;;0.70;;
4409;SDS011;2218;51.408;7.208;2023-03-04T05:13:40;0.73;;;0.70;;
4409;SDS011;2218;51.408;7.208;2023-03-04T05:16:07;0.77;;;0.57;;
4409;SDS011;2218;51.408;7.208;2023-03-04T05:18:36;0.70;;;0.50;;
4409;SDS011;2218;51.408;7.208;2023-03-04T05:21:03;0.70;;;0.50;;
4409;SDS011;2218;51.408;7.208;2023-03-04T05:23:32;0.70;;;0.60;;
4409;SDS011;2218;51.408;7.208;2023-03-04T05:26:01;0.80;;;0.50;;
4409;SDS011;2218;51.408;7.208;2023-03-04T05:28:30;0.70;;;0.57;;
4409;SDS011;2218;51.408;7.208;2023-03-04T05:30:57;0.70;;;0.50;;
4409;SDS011;2218;51.408;7.208;2023-03-04T05:33:24;0.70;;;0.60;;
4409;SDS011;2218;51.408;7.208;2023-03-04T05:35:53;0.80;;;0.60;;
4409;SDS011;2218;51.408;7.208;2023-03-04T05:38:20;0.90;;;0.60;;
4409;SDS011;2218;51.408;7.208;2023-03-04T05:40:47;0.70;;;0.60;;
4409;SDS011;2218;51.408;7.208;2023-03-04T05:43:14;0.60;;;0.50;;
4409;SDS011;2218;51.408;7.208;2023-03-04T05:45:41;0.70;;;0.50;;
4409;SDS011;2218;51.408;7.208;2023-03-04T05:48:09;0.77;;;0.50;;
4409;SDS011;2218;51.408;7.208;2023-03-04T05:50:36;0.73;;;0.67;;
4409;SDS011;2218;51.408;7.208;2023-03-04T05:53:04;0.80;;;0.70;;
4409;SDS011;2218;51.408;7.208;2023-03-04T05:55:31;0.70;;;0.40;;
4409;SDS011;2218;51.408;7.208;2023-03-04T05:57:58;0.77;;;0.70;;
4409;SDS011;2218;51.408;7.208;2023-03-04T06:00:25;0.80;;;0.60;;
4409;SDS011;2218;51.408;7.208;2023-03-04T06:02:52;0.90;;;0.60;;
4409;SDS011;2218;51.408;7.208;2023-03-04T06:05:19;0.70;;;0.60;;
4409;SDS011;2218;51.408;7.208;2023-03-04T06:07:47;0.77;;;0.50;;
4409;SDS011;2218;51.408;7.208;2023-03-04T06:10:16;0.70;;;0.50;;
4409;SDS011;2218;51.408;7.208;2023-03-04T06:12:43;1.00;;;0.60;;
4409;SDS011;2218;51.408;7.208;2023-03-04T06:15:11;0.70;;;0.50;;
4409;SDS011;2218;51.408;7.208;2023-03-04T06:17:39;0.70;;;0.63;;
4409;SDS011;2218;51.408;7.208;2023-03-04T06:20:07;0.80;;;0.60;;
4409;SDS011;2218;51.408;7.208;2023-03-04T06:22:36;0.70;;;0.50;;
4409;SDS011;2218;51.408;7.208;2023-03-04T06:25:03;0.70;;;0.53;;
4409;SDS011;2218;51.408;7.208;2023-03-04T06:27:32;0.80;;;0.70;;
4409;SDS011;2218;51.408;7.208;2023-03-04T06:29:59;0.80;;;0.50;;
4409;SDS011;2218;51.408;7.208;2023-03-04T06:32:27;1.13;;;0.70;;
4409;SDS011;2218;51.408;7.208;2023-03-04T06:34:54;0.70;;;0.47;;
4409;SDS011;2218;51.408;7.208;2023-03-04T06:37:21;1.73;;;0.60;;
4409;SDS011;2218;51.408;7.208;2023-03-04T06:39:48;0.70;;;0.50;;
4409;SDS011;2218;51.408;7.208;2023-03-04T06:42:15;0.70;;;0.50;;
4409;SDS011;2218;51.408;7.208;2023-03-04T06:44:43;0.80;;;0.50;;
4409;SDS011;2218;51.408;7.208;2023-03-04T06:47:10;0.70;;;0.50;;
4409;SDS011;2218;51.408;7.208;2023-03-04T06:49:37;0.73;;;0.60;;
4409;SDS011;2218;51.408;7.208;2023-03-04T06:52:04;0.70;;;0.50;;
4409;SDS011;2218;51.408;7.208;2023-03-04T06:54:31;0.83;;;0.50;;
4409;SDS011;2218;51.408;7.208;2023-03-04T06:56:57;0.70;;;0.40;;
4409;SDS011;2218;51.408;7.208;2023-03-04T06:59:24;0.67;;;0.50;;
4409;SDS011;2218;51.408;7.208;2023-03-04T07:01:53;0.60;;;0.50;;
4409;SDS011;2218;51.408;7.208;2023-03-04T07:04:20;0.80;;;0.50;;
4409;SDS011;2218;51.408;7.208;2023-03-04T07:06:47;0.70;;;0.60;;
4409;SDS011;2218;51.408;7.208;2023-03-04T07:09:15;0.70;;;0.60;;
4409;SDS011;2218;51.408;7.208;2023-03-04T07:11:42;0.70;;;0.50;;
4409;SDS011;2218;51.408;7.208;2023-03-04T07:14:09;0.70;;;0.50;;
4409;SDS011;2218;51.408;7.208;2023-03-04T07:16:37;0.60;;;0.47;;
4409;SDS011;2218;51.408;7.208;2023-03-04T07:19:05;0.70;;;0.50;;
4409;SDS011;2218;51.408;7.208;2023-03-04T07:21:32;0.80;;;0.70;;
4409;SDS011;2218;51.408;7.208;2023-03-04T07:23:59;0.70;;;0.53;;
4409;SDS011;2218;51.408;7.208;2023-03-04T07:26:26;0.70;;;0.40;;
4409;SDS011;2218;51.408;7.208;2023-03-04T07:28:53;0.67;;;0.47;;
4409;SDS011;2218;51.408;7.208;2023-03-04T07:31:23;0.70;;;0.40;;
4409;SDS011;2218;51.408;7.208;2023-03-04T07:33:54;0.70;;;0.50;;
4409;SDS011;2218;51.408;7.208;2023-03-04T07:36:26;0.70;;;0.57;;
4409;SDS011;2218;51.408;7.208;2023-03-04T07:38:53;0.70;;;0.50;;
4409;SDS011;2218;51.408;7.208;2023-03-04T07:41:21;0.90;;;0.50;;
4409;SDS011;2218;51.408;7.208;2023-03-04T07:43:51;0.70;;;0.40;;
4409;SDS011;2218;51.408;7.208;2023-03-04T07:46:18;0.80;;;0.60;;
4409;SDS011;2218;51.408;7.208;2023-03-04T07:48:45;0.70;;;0.50;;
4409;SDS011;2218;51.408;7.208;2023-03-04T07:51:13;1.40;;;0.40;;
4409;SDS011;2218;51.408;7.208;2023-03-04T07:53:44;0.70;;;0.50;;
4409;SDS011;2218;51.408;7.208;2023-03-04T07:56:14;0.80;;;0.50;;
4409;SDS011;2218;51.408;7.208;2023-03-04T07:58:44;0.73;;;0.50;;
4409;SDS011;2218;51.408;7.208;2023-03-04T08:01:13;1.47;;;0.50;;
4409;SDS011;2218;51.408;7.208;2023-03-04T08:03:42;0.70;;;0.40;;
4409;SDS011;2218;51.408;7.208;2023-03-04T08:06:10;0.70;;;0.50;;
4409;SDS011;2218;51.408;7.208;2023-03-04T08:08:39;0.80;;;0.50;;
4409;SDS011;2218;51.408;7.208;2023-03-04T08:11:08;0.73;;;0.50;;
4409;SDS011;2218;51.408;7.208;2023-03-04T08:13:42;0.70;;;0.50;;
4409;SDS011;2218;51.408;7.208;2023-03-04T08:16:09;0.70;;;0.50;;
4409;SDS011;2218;51.408;7.208;2023-03-04T08:18:39;0.80;;;0.40;;
4409;SDS011;2218;51.408;7.208;2023-03-04T08:21:08;0.70;;;0.50;;
4409;SDS011;2218;51.408;7.208;2023-03-04T08:23:36;1.10;;;0.60;;
4409;SDS011;2218;51.408;7.208;2023-03-04T08:26:07;0.70;;;0.50;;
4409;SDS011;2218;51.408;7.208;2023-03-04T08:28:37;0.80;;;0.43;;
4409;SDS011;2218;51.408;7.208;2023-03-04T08:31:04;0.70;;;0.50;;
4409;SDS011;2218;51.408;7.208;2023-03-04T08:33:32;0.70;;;0.40;;
4409;SDS011;2218;51.408;7.208;2023-03-04T08:36:00;0.60;;;0.40;;
4409;SDS011;2218;51.408;7.208;2023-03-04T08:38:26;1.60;;;0.50;;
4409;SDS011;2218;51.408;7.208;2023-03-04T08:40:53;0.90;;;0.73;;
4409;SDS011;2218;51.408;7.208;2023-03-04T08:43:23;0.70;;;0.47;;
4409;SDS011;2218;51.408;7.208;2023-03-04T08:45:51;0.80;;;0.50;;
4409;SDS011;2218;51.408;7.208;2023-03-04T08:48:19;0.70;;;0.50;;
4409;SDS011;2218;51.408;7.208;2023-03-04T08:50:48;0.67;;;0.43;;
4409;SDS011;2218;51.408;7.208;2023-03-04T08:53:16;0.80;;;0.57;;
4409;SDS011;2218;51.408;7.208;2023-03-04T08:55:44;0.90;;;0.47;;
4409;SDS011;2218;51.408;7.208;2023-03-04T08:58:12;0.70;;;0.50;;
4409;SDS011;2218;51.408;7.208;2023-03-04T09:00:41;0.70;;;0.40;;
4409;SDS011;2218;51.408;7.208;2023-03-04T09:03:12;0.70;;;0.50;;
4409;SDS011;2218;51.408;7.208;2023-03-04T09:05:40;0.70;;;0.60;;
4409;SDS011;2218;51.408;7.208;2023-03-04T09:08:07;0.80;;;0.50;;
4409;SDS011;2218;51.408;7.208;2023-03-04T09:10:34;0.60;;;0.50;;
4409;SDS011;2218;51.408;7.208;2023-03-04T09:13:01;0.70;;;0.50;;
4409;SDS011;2218;51.408;7.208;2023-03-04T09:15:28;0.70;;;0.50;;
4409;SDS011;2218;51.408;7.208;2023-03-04T09:17:56;0.80;;;0.50;;
4409;SDS011;2218;51.408;7.208;2023-03-04T09:20:23;0.67;;;0.40;;
4409;SDS011;2218;51.408;7.208;2023-03-04T09:22:50;0.80;;;0.57;;
4409;SDS011;2218;51.408;7.208;2023-03-04T09:25:17;0.70;;;0.50;;
4409;SDS011;2218;51.408;7.208;2023-03-04T09:27:44;0.70;;;0.53;;
4409;SDS011;2218;51.408;7.208;2023-03-04T09:30:11;0.70;;;0.50;;
4409;SDS011;2218;51.408;7.208;2023-03-04T09:32:39;0.70;;;0.50;;
4409;SDS011;2218;51.408;7.208;2023-03-04T09:35:07;0.60;;;0.43;;
4409;SDS011;2218;51.408;7.208;2023-03-04T09:37:35;0.70;;;0.50;;
4409;SDS011;2218;51.408;7.208;2023-03-04T09:40:02;0.70;;;0.50;;
4409;SDS011;2218;51.408;7.208;2023-03-04T09:42:32;0.70;;;0.50;;
4409;SDS011;2218;51.408;7.208;2023-03-04T09:45:10;0.70;;;0.50;;
4409;SDS011;2218;51.408;7.208;2023-03-04T09:47:45;0.70;;;0.60;;
4409;SDS011;2218;51.408;7.208;2023-03-04T09:50:17;0.60;;;0.40;;
4409;SDS011;2218;51.408;7.208;2023-03-04T09:52:50;0.80;;;0.47;;
4409;SDS011;2218;51.408;7.208;2023-03-04T09:55:33;0.70;;;0.50;;
4409;SDS011;2218;51.408;7.208;2023-03-04T09:58:06;0.80;;;0.50;;
4409;SDS011;2218;51.408;7.208;2023-03-04T10:00:49;0.70;;;0.50;;
4409;SDS011;2218;51.408;7.208;2023-03-04T10:03:22;0.70;;;0.57;;
4409;SDS011;2218;51.408;7.208;2023-03-04T10:05:59;0.70;;;0.50;;
4409;SDS011;2218;51.408;7.208;2023-03-04T10:08:39;0.70;;;0.50;;
4409;SDS011;2218;51.408;7.208;2023-03-04T10:11:15;0.70;;;0.50;;
4409;SDS011;2218;51.408;7.208;2023-03-04T10:13:53;0.70;;;0.50;;
4409;SDS011;2218;51.408;7.208;2023-03-04T10:16:30;0.80;;;0.60;;
4409;SDS011;2218;51.408;7.208;2023-03-04T10:19:13;0.67;;;0.50;;
4409;SDS011;2218;51.408;7.208;2023-03-04T10:21:54;0.70;;;0.57;;
4409;SDS011;2218;51.408;7.208;2023-03-04T10:24:24;0.60;;;0.50;;
4409;SDS011;2218;51.408;7.208;2023-03-04T10:26:54;0.70;;;0.40;;
4409;SDS011;2218;51.408;7.208;2023-03-04T10:29:29;0.70;;;0.50;;
4409;SDS011;2218;51.408;7.208;2023-03-04T10:31:58;0.70;;;0.70;;
4409;SDS011;2218;51.408;7.208;2023-03-04T10:34:25;0.60;;;0.50;;
4409;SDS011;2218;51.408;7.208;2023-03-04T10:36:53;0.70;;;0.70;;
4409;SDS011;2218;51.408;7.208;2023-03-04T10:39:25;0.70;;;0.60;;
4409;SDS011;2218;51.408;7.208;2023-03-04T10:41:57;0.70;;;0.60;;
4409;SDS011;2218;51.408;7.208;2023-03-04T10:44:27;0.67;;;0.50;;
4409;SDS011;2218;51.408;7.208;2023-03-04T10:46:56;0.70;;;0.50;;
4409;SDS011;2218;51.408;7.208;2023-03-04T10:49:24;0.80;;;0.60;;
4409;SDS011;2218;51.408;7.208;2023-03-04T10:51:59;0.70;;;0.60;;
4409;SDS011;2218;51.408;7.208;2023-03-04T10:54:40;0.70;;;0.50;;
4409;SDS011;2218;51.408;7.208;2023-03-04T10:57:14;0.80;;;0.60;;
4409;SDS011;2218;51.408;7.208;2023-03-04T10:59:46;0.70;;;0.60;;
4409;SDS011;2218;51.408;7.208;2023-03-04T11:02:21;0.70;;;0.60;;
4409;SDS011;2218;51.408;7.208;2023-03-04T11:04:55;0.70;;;0.70;;
4409;SDS011;2218;51.408;7.208;2023-03-04T11:07:38;0.70;;;0.50;;
4409;SDS011;2218;51.408;7.208;2023-03-04T11:10:08;0.70;;;0.63;;
4409;SDS011;2218;51.408;7.208;2023-03-04T11:12:40;0.70;;;0.63;;
4409;SDS011;2218;51.408;7.208;2023-03-04T11:15:17;0.70;;;0.60;;
4409;SDS011;2218;51.408;7.208;2023-03-04T11:17:52;0.70;;;0.70;;
4409;SDS011;2218;51.408;7.208;2023-03-04T11:20:26;0.70;;;0.60;;
4409;SDS011;2218;51.408;7.208;2023-03-04T11:23:00;0.77;;;0.70;;
4409;SDS011;2218;51.408;7.208;2023-03-04T11:25:32;0.60;;;0.50;;
4409;SDS011;2218;51.408;7.208;2023-03-04T11:28:04;0.80;;;0.80;;
4409;SDS011;2218;51.408;7.208;2023-03-04T11:30:40;0.70;;;0.60;;
4409;SDS011;2218;51.408;7.208;2023-03-04T11:33:21;0.70;;;0.60;;
4409;SDS011;2218;51.408;7.208;2023-03-04T11:35:56;0.67;;;0.57;;
4409;SDS011;2218;51.408;7.208;2023-03-04T11:38:38;0.80;;;0.60;;
4409;SDS011;2218;51.408;7.208;2023-03-04T11:41:13;0.80;;;0.77;;
4409;SDS011;2218;51.408;7.208;2023-03-04T11:43:46;0.70;;;0.50;;
4409;SDS011;2218;51.408;7.208;2023-03-04T11:46:22;0.70;;;0.63;;
4409;SDS011;2218;51.408;7.208;2023-03-04T11:49:28;0.70;;;0.60;;
4409;SDS011;2218;51.408;7.208;2023-03-04T11:52:45;0.80;;;0.70;;
4409;SDS011;2218;51.408;7.208;2023-03-04T11:55:37;0.80;;;0.60;;
4409;SDS011;2218;51.408;7.208;2023-03-04T11:58:16;0.70;;;0.60;;
4409;SDS011;2218;51.408;7.208;2023-03-04T12:01:21;0.80;;;0.80;;
4409;SDS011;2218;51.408;7.208;2023-03-04T12:04:02;0.80;;;0.63;;
4409;SDS011;2218;51.408;7.208;2023-03-04T12:06:51;0.70;;;0.63;;
4409;SDS011;2218;51.408;7.208;2023-03-04T12:09:39;0.70;;;0.50;;
4409;SDS011;2218;51.408;7.208;2023-03-04T12:12:26;0.80;;;0.70;;
4409;SDS011;2218;51.408;7.208;2023-03-04T12:15:16;0.67;;;0.57;;
4409;SDS011;2218;51.408;7.208;2023-03-04T12:17:54;0.70;;;0.60;;
4409;SDS011;2218;51.408;7.208;2023-03-04T12:20:47;0.70;;;0.60;;
4409;SDS011;2218;51.408;7.208;2023-03-04T12:23:39;0.60;;;0.50;;
4409;SDS011;2218;51.408;7.208;2023-03-04T12:26:31;0.70;;;0.57;;
4409;SDS011;2218;51.408;7.208;2023-03-04T12:29:09;0.70;;;0.67;;
4409;SDS011;2218;51.408;7.208;2023-03-04T12:31:45;0.70;;;0.60;;
4409;SDS011;2218;51.408;7.208;2023-03-04T12:34:29;0.77;;;0.60;;
4409;SDS011;2218;51.408;7.208;2023-03-04T12:37:15;0.80;;;0.77;;
4409;SDS011;2218;51.408;7.208;2023-03-04T12:40:15;0.70;;;0.67;;
4409;SDS011;2218;51.408;7.208;2023-03-04T12:43:06;0.67;;;0.57;;
4409;SDS011;2218;51.408;7.208;2023-03-04T12:45:56;0.70;;;0.57;;
4409;SDS011;2218;51.408;7.208;2023-03-04T12:48:38;0.70;;;0.57;;
4409;SDS011;2218;51.408;7.208;2023-03-04T12:51:16;0.60;;;0.50;;
4409;SDS011;2218;51.408;7.208;2023-03-04T12:53:56;0.80;;;0.60;;
4409;SDS011;2218;51.408;7.208;2023-03-04T12:56:44;0.63;;;0.50;;
4409;SDS011;2218;51.408;7.208;2023-03-04T12:59:20;0.70;;;0.50;;
4409;SDS011;2218;51.408;7.208;2023-03-04T13:01:54;0.70;;;0.60;;
4409;SDS011;2218;51.408;7.208;2023-03-04T13:04:40;0.70;;;0.63;;
4409;SDS011;2218;51.408;7.208;2023-03-04T13:07:26;0.77;;;0.57;;
4409;SDS011;2218;51.408;7.208;2023-03-04T13:10:10;0.70;;;0.57;;
4409;SDS011;2218;51.408;7.208;2023-03-04T13:12:45;0.60;;;0.47;;
4409;SDS011;2218;51.408;7.208;2023-03-04T13:15:28;0.70;;;0.50;;
4409;SDS011;2218;51.408;7.208;2023-03-04T13:18:03;0.60;;;0.50;;
4409;SDS011;2218;51.408;7.208;2023-03-04T13:23:48;1.07;;;0.50;;
4409;SDS011;2218;51.408;7.208;2023-03-04T13:26:20;0.70;;;0.60;;
4409;SDS011;2218;51.408;7.208;2023-03-04T13:29:19;0.60;;;0.50;;
4409;SDS011;2218;51.408;7.208;2023-03-04T13:32:01;0.70;;;0.50;;
4409;SDS011;2218;51.408;7.208;2023-03-04T13:34:43;0.60;;;0.50;;
4409;SDS011;2218;51.408;7.208;2023-03-04T13:37:26;0.70;;;0.70;;
4409;SDS011;2218;51.408;7.208;2023-03-04T13:45:51;0.70;;;0.57;;
4409;SDS011;2218;51.408;7.208;2023-03-04T13:48:22;0.70;;;0.60;;
4409;SDS011;2218;51.408;7.208;2023-03-04T13:50:57;0.70;;;0.50;;
4409;SDS011;2218;51.408;7.208;2023-03-04T13:53:28;0.70;;;0.70;;
4409;SDS011;2218;51.408;7.208;2023-03-04T13:56:20;0.70;;;0.70;;
4409;SDS011;2218;51.408;7.208;2023-03-04T14:01:55;0.63;;;0.50;;
4409;SDS011;2218;51.408;7.208;2023-03-04T14:04:40;0.90;;;0.70;;
4409;SDS011;2218;51.408;7.208;2023-03-04T14:07:19;0.70;;;0.60;;
4409;SDS011;2218;51.408;7.208;2023-03-04T14:09:54;0.80;;;0.70;;
4409;SDS011;2218;51.408;7.208;2023-03-04T14:12:24;0.70;;;0.50;;
4409;SDS011;2218;51.408;7.208;2023-03-04T14:14:55;0.70;;;0.60;;
4409;SDS011;2218;51.408;7.208;2023-03-04T14:17:25;0.70;;;0.57;;
4409;SDS011;2218;51.408;7.208;2023-03-04T14:19:56;0.70;;;0.60;;
4409;SDS011;2218;51.408;7.208;2023-03-04T14:22:28;0.70;;;0.60;;
4409;SDS011;2218;51.408;7.208;2023-03-04T14:24:57;0.70;;;0.60;;
4409;SDS011;2218;51.408;7.208;2023-03-04T14:27:28;0.70;;;0.50;;
4409;SDS011;2218;51.408;7.208;2023-03-04T14:29:59;0.70;;;0.57;;
4409;SDS011;2218;51.408;7.208;2023-03-04T14:32:29;0.70;;;0.57;;
4409;SDS011;2218;51.408;7.208;2023-03-04T14:34:58;0.70;;;0.70;;
4409;SDS011;2218;51.408;7.208;2023-03-04T14:37:32;0.70;;;0.70;;
4409;SDS011;2218;51.408;7.208;2023-03-04T14:40:10;0.70;;;0.57;;
4409;SDS011;2218;51.408;7.208;2023-03-04T14:42:47;0.70;;;0.50;;
4409;SDS011;2218;51.408;7.208;2023-03-04T14:45:21;0.73;;;0.67;;
4409;SDS011;2218;51.408;7.208;2023-03-04T14:47:49;0.70;;;0.60;;
4409;SDS011;2218;51.408;7.208;2023-03-04T14:50:22;0.70;;;0.70;;
4409;SDS011;2218;51.408;7.208;2023-03-04T14:53:02;0.70;;;0.67;;
4409;SDS011;2218;51.408;7.208;2023-03-04T14:55:53;0.70;;;0.60;;
4409;SDS011;2218;51.408;7.208;2023-03-04T14:58:25;0.70;;;0.60;;
4409;SDS011;2218;51.408;7.208;2023-03-04T15:01:04;0.80;;;0.60;;
4409;SDS011;2218;51.408;7.208;2023-03-04T15:03:40;0.70;;;0.50;;
4409;SDS011;2218;51.408;7.208;2023-03-04T15:06:14;0.70;;;0.60;;
4409;SDS011;2218;51.408;7.208;2023-03-04T15:08:45;0.67;;;0.53;;
4409;SDS011;2218;51.408;7.208;2023-03-04T15:11:21;0.70;;;0.60;;
4409;SDS011;2218;51.408;7.208;2023-03-04T15:13:52;0.70;;;0.60;;
4409;SDS011;2218;51.408;7.208;2023-03-04T15:16:23;0.80;;;0.80;;
4409;SDS011;2218;51.408;7.208;2023-03-04T15:18:58;0.70;;;0.50;;
4409;SDS011;2218;51.408;7.208;2023-03-04T15:21:33;0.70;;;0.50;;
4409;SDS011;2218;51.408;7.208;2023-03-04T15:24:06;0.80;;;0.60;;
4409;SDS011;2218;51.408;7.208;2023-03-04T15:26:36;0.70;;;0.60;;
4409;SDS011;2218;51.408;7.208;2023-03-04T15:29:10;0.70;;;0.50;;
4409;SDS011;2218;51.408;7.208;2023-03-04T15:31:41;0.67;;;0.60;;
4409;SDS011;2218;51.408;7.208;2023-03-04T15:34:10;0.93;;;0.60;;
4409;SDS011;2218;51.408;7.208;2023-03-04T15:36:39;0.70;;;0.60;;
4409;SDS011;2218;51.408;7.208;2023-03-04T15:39:09;0.70;;;0.50;;
4409;SDS011;2218;51.408;7.208;2023-03-04T15:41:41;0.70;;;0.60;;
4409;SDS011;2218;51.408;7.208;2023-03-04T15:44:10;0.70;;;0.60;;
4409;SDS011;2218;51.408;7.208;2023-03-04T15:46:38;0.70;;;0.60;;
4409;SDS011;2218;51.408;7.208;2023-03-04T15:49:05;0.70;;;0.50;;
4409;SDS011;2218;51.408;7.208;2023-03-04T15:51:31;0.90;;;0.70;;
4409;SDS011;2218;51.408;7.208;2023-03-04T15:53:58;0.90;;;0.50;;